Time;durP1;ratioP1;P1;durP2;ratioP2;P2;SDS_P1;SDS_P2;PMS_P1;PMS_P2;Temp;Humidity;BMP_temperature;BMP_pressure;BME280_temperature;BME280_humidity;BME280_pressure;Samples;Min_cycle;Max_cycle;Signal;HPM_P1;HPM_P2
2022/10/19 00:00:20;;;;;;;16.13;3.72;;;;;;;;;;5012515;28;20220;-66
2022/10/19 00:02:45;;;;;;;14.25;3.95;;;;;;;;;;5013310;28;20688;-66
2022/10/19 00:05:11;;;;;;;16.08;3.33;;;;;;;;;;5011991;28;20220;-66
2022/10/19 00:07:36;;;;;;;14.27;4.00;;;;;;;;;;5013240;28;20723;-66
2022/10/19 00:10:01;;;;;;;11.50;3.33;;;;;;;;;;5012751;28;20220;-65
2022/10/19 00:12:27;;;;;;;11.85;4.22;;;;;;;;;;5012427;28;20628;-66
2022/10/19 00:14:52;;;;;;;8.38;3.17;;;;;;;;;;5012932;28;20242;-66
2022/10/19 00:17:17;;;;;;;11.77;3.78;;;;;;;;;;5012457;28;20220;-66
2022/10/19 00:19:42;;;;;;;12.88;4.28;;;;;;;;;;5012554;28;20327;-66
2022/10/19 00:22:08;;;;;;;13.05;3.85;;;;;;;;;;5012172;28;20263;-66
2022/10/19 00:24:33;;;;;;;14.45;3.78;;;;;;;;;;5012812;28;20223;-66
2022/10/19 00:26:58;;;;;;;10.30;3.60;;;;;;;;;;5012230;28;20286;-66
2022/10/19 00:29:23;;;;;;;9.75;3.33;;;;;;;;;;5012575;28;20216;-66
2022/10/19 00:31:49;;;;;;;8.90;3.63;;;;;;;;;;5012773;28;20668;-66
2022/10/19 00:34:14;;;;;;;10.13;4.30;;;;;;;;;;5011745;28;20224;-66
2022/10/19 00:36:40;;;;;;;13.48;4.10;;;;;;;;;;5012233;28;20228;-66
2022/10/19 00:39:06;;;;;;;13.05;4.20;;;;;;;;;;5011900;28;20312;-66
2022/10/19 00:41:32;;;;;;;8.40;3.38;;;;;;;;;;5011966;28;20295;-66
2022/10/19 00:43:58;;;;;;;12.85;3.90;;;;;;;;;;5012669;28;20213;-66
2022/10/19 00:46:23;;;;;;;11.38;3.50;;;;;;;;;;5012025;28;20207;-66
2022/10/19 00:48:49;;;;;;;11.57;4.00;;;;;;;;;;5011739;28;20208;-66
2022/10/19 00:51:14;;;;;;;14.82;4.50;;;;;;;;;;5011771;28;20599;-66
2022/10/19 00:53:39;;;;;;;9.23;3.38;;;;;;;;;;5012443;28;20255;-66
2022/10/19 00:56:06;;;;;;;12.57;3.72;;;;;;;;;;5009581;28;20235;-66
2022/10/19 00:58:31;;;;;;;9.48;3.85;;;;;;;;;;5012419;28;20287;-66
2022/10/19 01:00:58;;;;;;;14.50;4.60;;;;;;;;;;5012042;28;20308;-66
2022/10/19 01:03:23;;;;;;;14.15;4.35;;;;;;;;;;5010898;28;20248;-67
2022/10/19 01:05:48;;;;;;;11.68;3.72;;;;;;;;;;5011833;28;20224;-66
2022/10/19 01:08:13;;;;;;;19.05;4.18;;;;;;;;;;5010730;28;20213;-66
2022/10/19 01:10:42;;;;;;;16.73;4.75;;;;;;;;;;5011594;28;20655;-66
2022/10/19 01:13:12;;;;;;;9.27;3.80;;;;;;;;;;5011551;28;20299;-66
2022/10/19 01:15:41;;;;;;;11.32;4.63;;;;;;;;;;5009829;28;20737;-67
2022/10/19 01:18:17;;;;;;;12.15;4.07;;;;;;;;;;5011402;28;20236;-66
2022/10/19 01:20:56;;;;;;;12.70;4.43;;;;;;;;;;5010743;28;20209;-67
2022/10/19 01:23:27;;;;;;;12.82;3.97;;;;;;;;;;5009410;28;20684;-67
2022/10/19 01:25:58;;;;;;;13.05;4.07;;;;;;;;;;5001441;28;20231;-67
2022/10/19 01:28:28;;;;;;;11.23;3.50;;;;;;;;;;5002093;28;20238;-66
2022/10/19 01:30:54;;;;;;;11.18;4.15;;;;;;;;;;5000883;28;20618;-65
2022/10/19 01:33:21;;;;;;;8.80;3.85;;;;;;;;;;5001528;28;20299;-64
2022/10/19 01:35:50;;;;;;;12.40;4.25;;;;;;;;;;4996548;28;20295;-64
2022/10/19 01:38:21;;;;;;;14.50;4.35;;;;;;;;;;4992981;28;20350;-64
2022/10/19 01:40:49;;;;;;;8.82;3.80;;;;;;;;;;4992493;28;20208;-64
2022/10/19 01:43:20;;;;;;;11.52;3.72;;;;;;;;;;4999873;28;20243;-64
2022/10/19 01:45:56;;;;;;;12.38;3.92;;;;;;;;;;4983038;28;20587;-64
2022/10/19 01:48:22;;;;;;;10.63;4.00;;;;;;;;;;4983578;28;20216;-64
2022/10/19 01:50:49;;;;;;;12.40;3.58;;;;;;;;;;4999093;28;20281;-64
2022/10/19 01:53:15;;;;;;;10.10;3.70;;;;;;;;;;5000967;28;20208;-64
2022/10/19 01:55:41;;;;;;;15.63;3.90;;;;;;;;;;5001242;28;20224;-64
2022/10/19 01:58:07;;;;;;;6.57;3.60;;;;;;;;;;4994442;28;20579;-64
2022/10/19 02:00:33;;;;;;;12.65;3.70;;;;;;;;;;4963960;28;20266;-64
2022/10/19 02:02:59;;;;;;;8.32;3.55;;;;;;;;;;4992011;28;20662;-64
2022/10/19 02:05:26;;;;;;;9.75;3.80;;;;;;;;;;4995919;28;20223;-64
2022/10/19 02:07:53;;;;;;;9.13;3.20;;;;;;;;;;5001281;28;20216;-64
2022/10/19 02:10:19;;;;;;;13.73;3.50;;;;;;;;;;4999535;28;20226;-64
2022/10/19 02:12:44;;;;;;;9.57;3.75;;;;;;;;;;5000221;28;20231;-64
2022/10/19 02:15:11;;;;;;;12.82;3.65;;;;;;;;;;4999385;28;20255;-64
2022/10/19 02:17:38;;;;;;;10.93;3.33;;;;;;;;;;4999247;28;20251;-64
2022/10/19 02:20:03;;;;;;;9.88;2.88;;;;;;;;;;4997573;28;20312;-64
2022/10/19 02:22:29;;;;;;;10.48;3.20;;;;;;;;;;4994553;28;20296;-64
2022/10/19 02:24:54;;;;;;;7.63;2.63;;;;;;;;;;4992076;28;20415;-64
2022/10/19 02:27:19;;;;;;;12.55;2.90;;;;;;;;;;4995343;28;20216;-64
2022/10/19 02:29:45;;;;;;;8.60;3.15;;;;;;;;;;5001244;28;20262;-64
2022/10/19 02:32:10;;;;;;;12.30;2.88;;;;;;;;;;5006383;28;20243;-64
2022/10/19 02:34:35;;;;;;;8.98;3.20;;;;;;;;;;5007762;28;20212;-64
2022/10/19 02:37:00;;;;;;;10.63;2.88;;;;;;;;;;5010439;28;20319;-63
2022/10/19 02:39:26;;;;;;;8.57;3.00;;;;;;;;;;5010445;28;20258;-64
2022/10/19 02:41:58;;;;;;;11.02;3.40;;;;;;;;;;5008672;28;20687;-64
2022/10/19 02:44:25;;;;;;;8.40;2.97;;;;;;;;;;5008975;28;20219;-64
2022/10/19 02:46:53;;;;;;;9.98;2.90;;;;;;;;;;5008581;28;20270;-64
2022/10/19 02:49:18;;;;;;;8.02;2.83;;;;;;;;;;5008765;28;20316;-64
2022/10/19 02:51:58;;;;;;;7.47;2.70;;;;;;;;;;5009355;28;20240;-64
2022/10/19 02:54:23;;;;;;;9.52;2.95;;;;;;;;;;5009091;28;20215;-64
2022/10/19 02:56:48;;;;;;;5.03;2.42;;;;;;;;;;5010337;28;20236;-64
2022/10/19 02:59:13;;;;;;;11.73;2.60;;;;;;;;;;5010039;28;20215;-64
2022/10/19 03:01:39;;;;;;;8.68;2.60;;;;;;;;;;5009428;28;20569;-65
2022/10/19 03:04:04;;;;;;;8.77;2.88;;;;;;;;;;5009679;28;20232;-64
2022/10/19 03:06:29;;;;;;;8.35;2.35;;;;;;;;;;5010526;28;20215;-64
2022/10/19 03:08:54;;;;;;;8.20;2.95;;;;;;;;;;5009528;28;20275;-64
2022/10/19 03:11:20;;;;;;;7.88;2.97;;;;;;;;;;5009796;28;20220;-64
2022/10/19 03:13:45;;;;;;;9.68;3.30;;;;;;;;;;5010088;28;20224;-65
2022/10/19 03:16:10;;;;;;;6.22;2.75;;;;;;;;;;5008896;28;20258;-65
2022/10/19 03:18:36;;;;;;;11.23;3.40;;;;;;;;;;5010436;28;20243;-65
2022/10/19 03:21:02;;;;;;;8.70;2.80;;;;;;;;;;5009942;28;20223;-64
2022/10/19 03:23:28;;;;;;;8.13;3.00;;;;;;;;;;5009490;28;20243;-65
2022/10/19 03:25:53;;;;;;;9.38;3.42;;;;;;;;;;5010069;28;20232;-64
2022/10/19 03:28:18;;;;;;;6.13;2.70;;;;;;;;;;5004152;28;20210;-64
2022/10/19 03:30:44;;;;;;;10.40;3.17;;;;;;;;;;5011003;28;20734;-65
2022/10/19 03:33:09;;;;;;;9.57;3.35;;;;;;;;;;5011383;28;20243;-66
2022/10/19 03:35:34;;;;;;;8.68;3.08;;;;;;;;;;5005425;28;20259;-65
2022/10/19 03:37:59;;;;;;;10.65;3.42;;;;;;;;;;5005554;28;20315;-65
2022/10/19 03:40:25;;;;;;;10.68;3.85;;;;;;;;;;5005391;28;20313;-65
2022/10/19 03:42:50;;;;;;;13.32;3.03;;;;;;;;;;5005731;28;20246;-66
2022/10/19 03:45:15;;;;;;;13.00;3.63;;;;;;;;;;4999185;28;20227;-65
2022/10/19 03:47:40;;;;;;;10.13;4.00;;;;;;;;;;4997839;28;20625;-65
2022/10/19 03:50:06;;;;;;;7.68;3.75;;;;;;;;;;4996354;28;20299;-65
2022/10/19 03:52:31;;;;;;;10.15;3.67;;;;;;;;;;5004080;28;21159;-65
2022/10/19 03:54:57;;;;;;;8.98;3.75;;;;;;;;;;5005438;28;20205;-65
2022/10/19 03:57:22;;;;;;;8.88;3.80;;;;;;;;;;5004433;28;20224;-65
2022/10/19 03:59:47;;;;;;;9.25;3.70;;;;;;;;;;5005482;28;20225;-65
2022/10/19 04:02:13;;;;;;;6.93;3.33;;;;;;;;;;5004405;28;20216;-65
2022/10/19 04:04:38;;;;;;;9.82;3.58;;;;;;;;;;5005115;28;20235;-66
2022/10/19 04:07:03;;;;;;;11.05;3.60;;;;;;;;;;5001657;28;20262;-65
2022/10/19 04:09:28;;;;;;;7.97;3.65;;;;;;;;;;4997784;28;20225;-66
2022/10/19 04:11:54;;;;;;;9.73;3.30;;;;;;;;;;4996682;28;20436;-65
2022/10/19 04:14:20;;;;;;;13.63;4.10;;;;;;;;;;5000013;28;20235;-65
2022/10/19 04:16:45;;;;;;;9.07;3.65;;;;;;;;;;5005584;28;20267;-65
2022/10/19 04:19:13;;;;;;;9.60;3.40;;;;;;;;;;5004353;28;20213;-65
2022/10/19 04:21:39;;;;;;;8.03;3.37;;;;;;;;;;5005428;28;20594;-66
2022/10/19 04:24:12;;;;;;;6.25;3.65;;;;;;;;;;5004657;28;20216;-65
2022/10/19 04:26:39;;;;;;;9.05;3.78;;;;;;;;;;5004514;28;20230;-65
2022/10/19 04:29:04;;;;;;;7.80;3.75;;;;;;;;;;5003237;28;20220;-65
2022/10/19 04:31:30;;;;;;;9.50;3.30;;;;;;;;;;4997901;28;20212;-65
2022/10/19 04:33:55;;;;;;;10.40;3.55;;;;;;;;;;5000039;28;20286;-66
2022/10/19 04:36:20;;;;;;;8.93;3.35;;;;;;;;;;4996305;28;20544;-65
2022/10/19 04:38:46;;;;;;;7.18;3.30;;;;;;;;;;4997115;28;20290;-65
2022/10/19 04:41:12;;;;;;;8.20;3.08;;;;;;;;;;5001362;28;20212;-66
2022/10/19 04:43:37;;;;;;;6.47;3.42;;;;;;;;;;5004965;28;20751;-65
2022/10/19 04:46:03;;;;;;;6.30;3.42;;;;;;;;;;5004229;28;20546;-65
2022/10/19 04:48:29;;;;;;;7.20;2.95;;;;;;;;;;5004221;28;20863;-65
2022/10/19 04:50:54;;;;;;;7.53;3.40;;;;;;;;;;5004944;28;20295;-65
2022/10/19 04:53:20;;;;;;;6.82;3.72;;;;;;;;;;5003693;28;26072;-65
2022/10/19 04:55:45;;;;;;;9.63;3.93;;;;;;;;;;5001045;28;20429;-65
2022/10/19 04:58:10;;;;;;;16.27;4.47;;;;;;;;;;4996144;28;20239;-64
2022/10/19 05:00:37;;;;;;;19.90;4.85;;;;;;;;;;4995297;28;20212;-65
2022/10/19 05:03:02;;;;;;;8.02;4.38;;;;;;;;;;5010673;28;20240;-65
2022/10/19 05:05:27;;;;;;;9.52;4.65;;;;;;;;;;5013944;28;20212;-69
2022/10/19 05:07:53;;;;;;;15.60;4.75;;;;;;;;;;5013433;28;20231;-69
2022/10/19 05:10:18;;;;;;;349.37;19.60;;;;;;;;;;5012187;28;20427;-67
2022/10/19 05:12:43;;;;;;;364.50;21.47;;;;;;;;;;5013027;28;20501;-67
2022/10/19 05:15:09;;;;;;;143.53;11.67;;;;;;;;;;5011837;28;20438;-69
2022/10/19 05:17:34;;;;;;;34.63;6.68;;;;;;;;;;5013425;28;20304;-68
2022/10/19 05:19:59;;;;;;;20.70;6.00;;;;;;;;;;5017078;28;20254;-68
2022/10/19 05:22:24;;;;;;;60.05;6.78;;;;;;;;;;5016129;28;20212;-68
2022/10/19 05:24:50;;;;;;;200.80;13.40;;;;;;;;;;5016860;28;20223;-68
2022/10/19 05:27:15;;;;;;;86.32;7.72;;;;;;;;;;5017521;28;20798;-69
2022/10/19 05:29:40;;;;;;;47.60;6.22;;;;;;;;;;5018135;28;20208;-69
2022/10/19 05:32:06;;;;;;;14.90;4.63;;;;;;;;;;5017321;28;20547;-67
2022/10/19 05:34:31;;;;;;;7.28;4.15;;;;;;;;;;5016679;28;20215;-69
2022/10/19 05:36:56;;;;;;;6.55;4.30;;;;;;;;;;5015727;28;20252;-69
2022/10/19 05:39:22;;;;;;;5.95;3.95;;;;;;;;;;5017242;28;20219;-68
2022/10/19 05:41:47;;;;;;;6.90;4.30;;;;;;;;;;5018400;28;20222;-68
2022/10/19 05:44:13;;;;;;;14.88;4.72;;;;;;;;;;5016794;28;20299;-68
2022/10/19 05:46:38;;;;;;;8.35;4.15;;;;;;;;;;5024238;28;20296;-68
2022/10/19 05:49:03;;;;;;;7.17;4.53;;;;;;;;;;5016420;28;20508;-70
2022/10/19 05:51:29;;;;;;;6.47;3.97;;;;;;;;;;5015118;28;20411;-64
2022/10/19 05:53:54;;;;;;;8.43;3.65;;;;;;;;;;5016200;28;20291;-64
2022/10/19 05:56:21;;;;;;;5.10;3.05;;;;;;;;;;5018989;28;20224;-65
2022/10/19 05:58:47;;;;;;;5.03;2.80;;;;;;;;;;5015609;28;20212;-64
2022/10/19 06:01:13;;;;;;;11.55;3.78;;;;;;;;;;5018342;28;20298;-65
2022/10/19 06:03:38;;;;;;;11.02;4.30;;;;;;;;;;5014683;28;20220;-65
2022/10/19 06:06:03;;;;;;;10.73;3.70;;;;;;;;;;5012991;28;20644;-64
2022/10/19 06:08:29;;;;;;;11.55;4.07;;;;;;;;;;5016690;28;20303;-65
2022/10/19 06:11:02;;;;;;;7.72;3.85;;;;;;;;;;5012463;28;20216;-66
2022/10/19 06:13:28;;;;;;;7.10;3.10;;;;;;;;;;5012819;28;20212;-65
2022/10/19 06:15:53;;;;;;;8.50;3.67;;;;;;;;;;5012226;28;20235;-67
2022/10/19 06:18:18;;;;;;;4.10;2.28;;;;;;;;;;5011845;28;20736;-67
2022/10/19 06:20:44;;;;;;;6.78;2.70;;;;;;;;;;5012834;28;20205;-71
2022/10/19 06:23:09;;;;;;;11.18;3.08;;;;;;;;;;5030292;28;20227;-69
2022/10/19 06:25:34;;;;;;;12.35;4.25;;;;;;;;;;5018912;28;20220;-69
2022/10/19 06:27:59;;;;;;;8.18;3.13;;;;;;;;;;5005831;28;20278;-68
2022/10/19 06:30:25;;;;;;;13.27;3.55;;;;;;;;;;5006746;28;20580;-68
2022/10/19 06:32:50;;;;;;;13.77;3.45;;;;;;;;;;5006434;28;20295;-69
2022/10/19 06:35:15;;;;;;;11.43;3.80;;;;;;;;;;5004594;28;20219;-68
2022/10/19 06:37:41;;;;;;;14.35;4.53;;;;;;;;;;5006641;28;20227;-69
2022/10/19 06:40:07;;;;;;;15.60;4.80;;;;;;;;;;5002927;28;20228;-68
2022/10/19 06:42:32;;;;;;;17.08;5.32;;;;;;;;;;5006035;28;20232;-69
2022/10/19 06:44:57;;;;;;;15.50;3.95;;;;;;;;;;5017175;28;20719;-69
2022/10/19 06:47:27;;;;;;;12.10;4.60;;;;;;;;;;5004874;28;20196;-69
2022/10/19 06:49:52;;;;;;;17.15;5.38;;;;;;;;;;5019325;28;20251;-69
2022/10/19 06:52:17;;;;;;;10.63;4.88;;;;;;;;;;5024156;28;20265;-68
2022/10/19 06:54:42;;;;;;;14.50;4.72;;;;;;;;;;5004846;28;20584;-69
2022/10/19 06:57:08;;;;;;;15.35;5.22;;;;;;;;;;5016781;28;20311;-68
2022/10/19 06:59:33;;;;;;;11.55;4.95;;;;;;;;;;5017263;28;20573;-68
2022/10/19 07:01:59;;;;;;;17.88;6.82;;;;;;;;;;5003409;28;20750;-68
2022/10/19 07:04:24;;;;;;;21.25;8.45;;;;;;;;;;5006066;28;20574;-68
2022/10/19 07:06:50;;;;;;;16.02;8.80;;;;;;;;;;5010484;28;20231;-68
2022/10/19 07:09:15;;;;;;;20.40;9.85;;;;;;;;;;5007094;28;20624;-68
2022/10/19 07:11:40;;;;;;;20.52;11.30;;;;;;;;;;5009289;28;20604;-68
2022/10/19 07:14:05;;;;;;;23.38;11.80;;;;;;;;;;5008754;28;20220;-68
2022/10/19 07:16:31;;;;;;;19.23;11.23;;;;;;;;;;5010073;28;20688;-69
2022/10/19 07:18:56;;;;;;;21.77;12.00;;;;;;;;;;5010580;28;20294;-69
2022/10/19 07:21:21;;;;;;;22.50;11.07;;;;;;;;;;5009704;28;21170;-69
2022/10/19 07:23:47;;;;;;;26.92;12.27;;;;;;;;;;5008995;28;20282;-69
2022/10/19 07:26:14;;;;;;;30.65;13.05;;;;;;;;;;5008606;28;20208;-68
2022/10/19 07:28:40;;;;;;;23.98;11.85;;;;;;;;;;4996087;28;64829;-68
2022/10/19 07:31:06;;;;;;;24.98;12.15;;;;;;;;;;5004892;28;68488;-68
2022/10/19 07:33:32;;;;;;;25.38;11.60;;;;;;;;;;5010005;28;20252;-68
2022/10/19 07:35:57;;;;;;;20.80;9.40;;;;;;;;;;5008592;28;20525;-68
2022/10/19 07:38:23;;;;;;;14.10;7.47;;;;;;;;;;5009377;28;20208;-67
2022/10/19 07:40:48;;;;;;;15.07;7.68;;;;;;;;;;5009420;28;20212;-66
2022/10/19 07:43:13;;;;;;;12.43;6.20;;;;;;;;;;5024413;28;20215;-63
2022/10/19 07:45:38;;;;;;;12.97;6.30;;;;;;;;;;5029081;28;20444;-61
2022/10/19 07:48:04;;;;;;;16.83;7.53;;;;;;;;;;5010479;28;20546;-64
2022/10/19 07:50:29;;;;;;;17.15;7.22;;;;;;;;;;5009311;28;20306;-63
2022/10/19 07:52:54;;;;;;;15.88;7.70;;;;;;;;;;5009683;28;20212;-64
2022/10/19 07:55:20;;;;;;;15.25;6.50;;;;;;;;;;5009435;28;20681;-64
2022/10/19 07:57:46;;;;;;;13.07;6.80;;;;;;;;;;5008920;28;20675;-62
2022/10/19 08:00:11;;;;;;;15.30;5.78;;;;;;;;;;5009340;28;20331;-63
2022/10/19 08:02:36;;;;;;;13.50;5.90;;;;;;;;;;5009292;28;20224;-63
2022/10/19 08:05:02;;;;;;;14.98;6.45;;;;;;;;;;5019372;28;20241;-64
2022/10/19 08:07:27;;;;;;;10.70;4.72;;;;;;;;;;5029662;28;20234;-63
2022/10/19 08:09:52;;;;;;;13.95;4.90;;;;;;;;;;5029575;28;20219;-63
2022/10/19 08:12:17;;;;;;;11.60;4.35;;;;;;;;;;5027841;28;20261;-63
2022/10/19 08:14:43;;;;;;;9.95;4.38;;;;;;;;;;5013675;28;20212;-63
2022/10/19 08:17:10;;;;;;;10.80;4.70;;;;;;;;;;5009891;28;20239;-64
2022/10/19 08:19:40;;;;;;;12.82;4.80;;;;;;;;;;5028261;28;20200;-63
2022/10/19 08:22:05;;;;;;;9.50;4.50;;;;;;;;;;5029241;28;20212;-63
2022/10/19 08:24:31;;;;;;;9.55;4.40;;;;;;;;;;5028627;28;20814;-64
2022/10/19 08:26:56;;;;;;;8.25;3.80;;;;;;;;;;5028576;28;20250;-63
2022/10/19 08:29:21;;;;;;;10.95;4.07;;;;;;;;;;5028346;28;20222;-63
2022/10/19 08:31:47;;;;;;;9.68;3.38;;;;;;;;;;5013414;28;20215;-63
2022/10/19 08:34:12;;;;;;;8.63;3.70;;;;;;;;;;5008387;28;20236;-63
2022/10/19 08:36:38;;;;;;;13.82;4.25;;;;;;;;;;5009086;28;20228;-62
2022/10/19 08:39:03;;;;;;;15.65;3.60;;;;;;;;;;5008265;28;20212;-62
2022/10/19 08:41:35;;;;;;;12.25;3.60;;;;;;;;;;5008774;28;20217;-62
2022/10/19 08:44:06;;;;;;;11.18;3.05;;;;;;;;;;5008723;28;20216;-62
2022/10/19 08:46:35;;;;;;;8.88;3.08;;;;;;;;;;5007534;28;20307;-63
2022/10/19 08:49:00;;;;;;;9.60;3.25;;;;;;;;;;5008861;28;20243;-62
2022/10/19 08:51:27;;;;;;;8.82;3.05;;;;;;;;;;5007238;28;20216;-63
2022/10/19 08:53:53;;;;;;;12.38;3.50;;;;;;;;;;5008373;28;20221;-62
2022/10/19 08:56:24;;;;;;;8.57;3.03;;;;;;;;;;5008373;28;20267;-62
2022/10/19 08:58:52;;;;;;;5.43;2.70;;;;;;;;;;5008716;28;20558;-62
2022/10/19 09:01:37;;;;;;;5.20;2.63;;;;;;;;;;5006181;28;20213;-62
2022/10/19 09:04:05;;;;;;;8.45;3.25;;;;;;;;;;5007922;28;20262;-62
2022/10/19 09:06:33;;;;;;;9.73;2.97;;;;;;;;;;5006773;28;20505;-62
2022/10/19 09:08:58;;;;;;;7.80;3.42;;;;;;;;;;5007177;28;20700;-62
2022/10/19 09:11:25;;;;;;;10.77;3.42;;;;;;;;;;5007927;28;20212;-62
2022/10/19 09:13:53;;;;;;;7.53;2.80;;;;;;;;;;5006514;28;20223;-61
2022/10/19 09:16:19;;;;;;;6.75;2.40;;;;;;;;;;5018104;28;20232;-63
2022/10/19 09:18:45;;;;;;;6.57;3.05;;;;;;;;;;5026733;28;20208;-62
2022/10/19 09:21:13;;;;;;;5.40;2.88;;;;;;;;;;5025396;28;20281;-62
2022/10/19 09:23:57;;;;;;;9.18;2.42;;;;;;;;;;5026893;28;20208;-62
2022/10/19 09:26:24;;;;;;;8.35;2.50;;;;;;;;;;5026012;28;20216;-62
2022/10/19 09:28:54;;;;;;;7.65;2.50;;;;;;;;;;5025130;28;20215;-62
2022/10/19 09:31:21;;;;;;;6.82;2.45;;;;;;;;;;5026120;28;20235;-62
2022/10/19 09:33:48;;;;;;;6.60;2.30;;;;;;;;;;5028359;28;20702;-62
2022/10/19 09:36:14;;;;;;;8.85;2.60;;;;;;;;;;5025084;28;20220;-62
2022/10/19 09:38:39;;;;;;;7.30;3.00;;;;;;;;;;5027781;28;20211;-62
2022/10/19 09:41:07;;;;;;;7.15;2.30;;;;;;;;;;5026893;28;20216;-62
2022/10/19 09:43:32;;;;;;;8.05;2.53;;;;;;;;;;5026257;28;20211;-62
2022/10/19 09:46:04;;;;;;;6.53;1.90;;;;;;;;;;5024552;28;20223;-62
2022/10/19 09:48:40;;;;;;;7.30;2.35;;;;;;;;;;5006354;28;20676;-62
2022/10/19 09:51:10;;;;;;;7.20;2.53;;;;;;;;;;5005287;28;20212;-62
2022/10/19 09:53:36;;;;;;;5.10;1.90;;;;;;;;;;5008063;28;20212;-62
2022/10/19 09:56:03;;;;;;;7.50;1.92;;;;;;;;;;5006375;28;20224;-62
2022/10/19 09:58:28;;;;;;;10.13;2.20;;;;;;;;;;5008025;28;20509;-62
2022/10/19 10:00:54;;;;;;;9.30;2.00;;;;;;;;;;5008036;28;20566;-62
2022/10/19 10:03:24;;;;;;;10.25;2.85;;;;;;;;;;5004706;28;20244;-62
2022/10/19 10:05:50;;;;;;;11.55;1.95;;;;;;;;;;5007547;28;20213;-62
2022/10/19 10:08:16;;;;;;;7.57;1.63;;;;;;;;;;5007141;28;20429;-62
2022/10/19 10:10:43;;;;;;;6.15;1.70;;;;;;;;;;5005052;28;20238;-62
2022/10/19 10:13:12;;;;;;;7.57;2.40;;;;;;;;;;5005780;28;20212;-62
2022/10/19 10:15:41;;;;;;;10.27;1.83;;;;;;;;;;5005934;28;20236;-62
2022/10/19 10:18:10;;;;;;;6.38;1.90;;;;;;;;;;5005128;28;20680;-62
2022/10/19 10:20:35;;;;;;;5.65;1.50;;;;;;;;;;5005896;28;20209;-62
2022/10/19 10:23:02;;;;;;;7.57;2.10;;;;;;;;;;5006920;28;20266;-62
2022/10/19 10:25:28;;;;;;;6.30;1.60;;;;;;;;;;5006391;28;20257;-62
2022/10/19 10:27:56;;;;;;;6.63;1.52;;;;;;;;;;5007481;28;20223;-62
2022/10/19 10:30:21;;;;;;;9.15;1.80;;;;;;;;;;5006595;28;20223;-62
2022/10/19 10:32:47;;;;;;;5.65;1.95;;;;;;;;;;5006596;28;20216;-62
2022/10/19 10:35:16;;;;;;;7.07;1.58;;;;;;;;;;5006867;28;20242;-62
2022/10/19 10:37:42;;;;;;;5.55;1.70;;;;;;;;;;5005793;28;20579;-62
2022/10/19 10:40:25;;;;;;;4.68;1.30;;;;;;;;;;5004063;28;20311;-62
2022/10/19 10:42:52;;;;;;;8.05;1.42;;;;;;;;;;5007106;28;20700;-62
2022/10/19 10:45:22;;;;;;;6.63;1.85;;;;;;;;;;5005955;28;20790;-62
2022/10/19 10:47:47;;;;;;;9.20;1.67;;;;;;;;;;5007319;28;20212;-62
2022/10/19 10:50:18;;;;;;;8.60;1.23;;;;;;;;;;5006517;28;20216;-62
2022/10/19 10:52:54;;;;;;;7.03;1.60;;;;;;;;;;5004949;28;20406;-62
2022/10/19 10:55:19;;;;;;;5.15;1.55;;;;;;;;;;5004799;28;20201;-62
2022/10/19 10:57:47;;;;;;;5.18;1.50;;;;;;;;;;5006952;28;20277;-62
2022/10/19 11:00:13;;;;;;;7.35;1.58;;;;;;;;;;5004928;28;20220;-62
2022/10/19 11:02:39;;;;;;;4.63;1.40;;;;;;;;;;5016785;28;20243;-62
2022/10/19 11:05:06;;;;;;;5.05;1.70;;;;;;;;;;5026003;28;20295;-62
2022/10/19 11:07:31;;;;;;;4.53;1.10;;;;;;;;;;5024880;28;20229;-62
2022/10/19 11:09:58;;;;;;;5.68;1.20;;;;;;;;;;5029642;28;20578;-62
2022/10/19 11:12:31;;;;;;;5.22;1.15;;;;;;;;;;5030635;28;20211;-62
2022/10/19 11:15:03;;;;;;;7.35;1.58;;;;;;;;;;5013961;28;20201;-62
2022/10/19 11:17:29;;;;;;;7.40;1.65;;;;;;;;;;5010936;28;20279;-62
2022/10/19 11:19:54;;;;;;;7.40;1.60;;;;;;;;;;5012152;28;20221;-62
2022/10/19 11:22:30;;;;;;;8.70;2.17;;;;;;;;;;5011427;28;20251;-62
2022/10/19 11:25:14;;;;;;;4.90;1.35;;;;;;;;;;5012384;28;20219;-62
2022/10/19 11:27:42;;;;;;;6.35;1.63;;;;;;;;;;5011188;28;20219;-62
2022/10/19 11:30:20;;;;;;;7.03;1.77;;;;;;;;;;5010544;28;20221;-62
2022/10/19 11:32:48;;;;;;;6.03;1.58;;;;;;;;;;5011212;28;20227;-62
2022/10/19 11:35:18;;;;;;;6.63;1.63;;;;;;;;;;5009745;28;20216;-62
2022/10/19 11:37:52;;;;;;;3.95;1.40;;;;;;;;;;5012160;28;20302;-62
2022/10/19 11:40:26;;;;;;;6.50;1.30;;;;;;;;;;5011691;28;20203;-62
2022/10/19 11:43:06;;;;;;;6.40;1.20;;;;;;;;;;5011497;28;20699;-62
2022/10/19 11:45:36;;;;;;;4.63;1.20;;;;;;;;;;5010655;28;20235;-62
2022/10/19 11:48:06;;;;;;;6.15;1.63;;;;;;;;;;5010520;28;20208;-62
2022/10/19 11:50:39;;;;;;;5.40;1.35;;;;;;;;;;5010082;28;20247;-62
2022/10/19 11:53:17;;;;;;;6.63;1.48;;;;;;;;;;5015249;28;20225;-62
2022/10/19 11:55:45;;;;;;;6.75;1.40;;;;;;;;;;5014728;28;20220;-62
2022/10/19 11:58:17;;;;;;;6.82;1.75;;;;;;;;;;5014328;28;20240;-62
2022/10/19 12:00:45;;;;;;;6.03;1.20;;;;;;;;;;5014507;28;20204;-62
2022/10/19 12:03:31;;;;;;;4.68;1.30;;;;;;;;;;5014474;28;20263;-62
2022/10/19 12:06:02;;;;;;;7.93;1.27;;;;;;;;;;5015113;28;20220;-62
2022/10/19 12:08:36;;;;;;;5.07;1.20;;;;;;;;;;5015250;28;20710;-62
2022/10/19 12:11:02;;;;;;;6.82;0.95;;;;;;;;;;5014262;28;20327;-63
2022/10/19 12:13:38;;;;;;;4.22;1.15;;;;;;;;;;5015250;28;20286;-62
2022/10/19 12:16:04;;;;;;;4.82;1.10;;;;;;;;;;5012665;28;20220;-62
2022/10/19 12:18:32;;;;;;;4.88;1.00;;;;;;;;;;5016011;28;20210;-62
2022/10/19 12:20:58;;;;;;;6.90;1.48;;;;;;;;;;5029213;28;20276;-62
2022/10/19 12:23:31;;;;;;;5.25;1.00;;;;;;;;;;5027502;28;20208;-62
2022/10/19 12:25:57;;;;;;;7.50;1.20;;;;;;;;;;5012547;28;20710;-62
2022/10/19 12:28:25;;;;;;;6.60;1.00;;;;;;;;;;5008434;28;20259;-62
2022/10/19 12:30:51;;;;;;;2.92;1.05;;;;;;;;;;5027111;28;20223;-62
2022/10/19 12:33:24;;;;;;;6.05;1.00;;;;;;;;;;5027118;28;20222;-62
2022/10/19 12:35:52;;;;;;;6.70;1.08;;;;;;;;;;5011738;28;20320;-62
2022/10/19 12:38:20;;;;;;;6.68;0.90;;;;;;;;;;5008285;28;20228;-62
2022/10/19 12:40:50;;;;;;;5.05;1.35;;;;;;;;;;5008936;28;20672;-62
2022/10/19 12:43:16;;;;;;;4.63;0.80;;;;;;;;;;5008820;28;20224;-61
2022/10/19 12:45:48;;;;;;;4.45;1.10;;;;;;;;;;5007350;28;20230;-62
2022/10/19 12:48:14;;;;;;;5.90;1.00;;;;;;;;;;4987629;28;20221;-62
2022/10/19 12:50:47;;;;;;;5.13;1.10;;;;;;;;;;5005696;28;20215;-62
2022/10/19 12:53:29;;;;;;;3.95;0.80;;;;;;;;;;5007977;28;20216;-62
2022/10/19 12:56:05;;;;;;;6.20;1.10;;;;;;;;;;5007200;28;20516;-62
2022/10/19 12:58:33;;;;;;;6.55;1.58;;;;;;;;;;5008641;28;20686;-62
2022/10/19 13:00:58;;;;;;;7.28;1.50;;;;;;;;;;5010861;28;20239;-62
2022/10/19 13:03:24;;;;;;;5.80;1.23;;;;;;;;;;5025487;28;20254;-62
2022/10/19 13:05:56;;;;;;;7.53;1.25;;;;;;;;;;5006536;28;20569;-62
2022/10/19 13:08:25;;;;;;;6.50;1.38;;;;;;;;;;5006610;28;20295;-61
2022/10/19 13:11:02;;;;;;;6.43;1.33;;;;;;;;;;5006214;28;20224;-61
2022/10/19 13:13:50;;;;;;;6.18;1.17;;;;;;;;;;5007571;28;20212;-61
2022/10/19 13:16:27;;;;;;;5.90;1.00;;;;;;;;;;5007356;28;20529;-61
2022/10/19 13:18:59;;;;;;;6.13;1.40;;;;;;;;;;5008669;28;20310;-61
2022/10/19 13:21:42;;;;;;;5.13;0.90;;;;;;;;;;5007728;28;20742;-62
2022/10/19 13:24:23;;;;;;;5.03;1.10;;;;;;;;;;5007923;28;20216;-62
2022/10/19 13:27:01;;;;;;;4.75;0.90;;;;;;;;;;5007308;28;20220;-62
2022/10/19 13:29:27;;;;;;;9.52;1.60;;;;;;;;;;5007938;28;20215;-62
2022/10/19 13:31:52;;;;;;;4.03;1.10;;;;;;;;;;5006677;28;20278;-62
2022/10/19 13:34:18;;;;;;;4.45;0.90;;;;;;;;;;5007212;28;20216;-62
2022/10/19 13:37:01;;;;;;;5.47;1.63;;;;;;;;;;5007138;28;20693;-62
2022/10/19 13:39:26;;;;;;;5.40;1.08;;;;;;;;;;5006537;28;20204;-62
2022/10/19 13:41:52;;;;;;;5.50;1.00;;;;;;;;;;5007044;28;20217;-62
2022/10/19 13:44:19;;;;;;;5.55;1.05;;;;;;;;;;5005341;28;20212;-62
2022/10/19 13:46:45;;;;;;;4.85;0.80;;;;;;;;;;5019625;28;20672;-63
2022/10/19 13:49:16;;;;;;;6.63;1.05;;;;;;;;;;5007181;28;20208;-62
2022/10/19 13:51:57;;;;;;;3.78;0.80;;;;;;;;;;5008147;28;20216;-62
2022/10/19 13:54:28;;;;;;;7.63;1.10;;;;;;;;;;5007320;28;20652;-61
2022/10/19 13:57:12;;;;;;;6.28;0.95;;;;;;;;;;5007361;28;20227;-62
2022/10/19 13:59:54;;;;;;;6.90;1.00;;;;;;;;;;5007682;28;20239;-61
2022/10/19 14:02:38;;;;;;;6.68;1.30;;;;;;;;;;5005075;28;20219;-62
2022/10/19 14:05:03;;;;;;;5.78;1.10;;;;;;;;;;5007093;28;20270;-62
2022/10/19 14:07:37;;;;;;;2.92;1.10;;;;;;;;;;5007670;28;20216;-62
2022/10/19 14:10:07;;;;;;;3.88;1.00;;;;;;;;;;5005669;28;20226;-62
2022/10/19 14:12:33;;;;;;;5.82;1.00;;;;;;;;;;5006196;28;20235;-62
2022/10/19 14:14:59;;;;;;;3.17;0.85;;;;;;;;;;5006017;28;20219;-62
2022/10/19 14:17:28;;;;;;;7.65;1.13;;;;;;;;;;5004003;28;20323;-62
2022/10/19 14:19:55;;;;;;;5.72;1.63;;;;;;;;;;5006741;28;20228;-61
2022/10/19 14:22:26;;;;;;;4.25;0.98;;;;;;;;;;5009433;28;20212;-62
2022/10/19 14:24:51;;;;;;;4.57;1.10;;;;;;;;;;5006630;28;20219;-61
2022/10/19 14:27:22;;;;;;;4.10;0.90;;;;;;;;;;5007066;28;20216;-61
2022/10/19 14:29:48;;;;;;;7.90;1.23;;;;;;;;;;5020868;28;20212;-61
2022/10/19 14:32:13;;;;;;;4.32;1.10;;;;;;;;;;5005325;28;20736;-61
2022/10/19 14:34:40;;;;;;;4.57;1.08;;;;;;;;;;5007362;28;20667;-61
2022/10/19 14:37:05;;;;;;;6.85;1.83;;;;;;;;;;5006626;28;20236;-62
2022/10/19 14:39:33;;;;;;;4.75;1.30;;;;;;;;;;5005357;28;20262;-61